Time;durP1;ratioP1;P1;durP2;ratioP2;P2;SDS_P1;SDS_P2;PMS_P1;PMS_P2;Temp;Humidity;BMP_temperature;BMP_pressure;BME280_temperature;BME280_humidity;BME280_pressure;Samples;Min_cycle;Max_cycle;Signal;HPM_P1;HPM_P2
2021/12/21 00:00:34;;;;;;;6.18;3.72;;;-1.70;99.90;;;;;;5035748;28;20054;-70
2021/12/21 00:02:59;;;;;;;7.93;4.55;;;-1.80;99.90;;;;;;5021237;28;20045;-69
2021/12/21 00:05:29;;;;;;;9.88;4.50;;;-1.60;99.90;;;;;;5035572;28;20331;-70
2021/12/21 00:07:59;;;;;;;7.07;3.92;;;-1.90;99.90;;;;;;5038329;28;20056;-70
2021/12/21 00:10:28;;;;;;;12.75;4.60;;;-1.90;99.90;;;;;;5035478;28;20064;-70
2021/12/21 00:15:36;;;;;;;7.05;4.18;;;-1.90;99.90;;;;;;5036165;28;20073;-72
2021/12/21 00:20:51;;;;;;;8.82;4.32;;;-1.80;99.90;;;;;;5037700;28;20457;-71
2021/12/21 00:26:00;;;;;;;8.75;5.30;;;-1.90;99.90;;;;;;5038246;28;20049;-71
2021/12/21 00:28:29;;;;;;;10.98;5.28;;;-1.90;99.90;;;;;;5037387;28;20044;-70
2021/12/21 00:30:55;;;;;;;10.60;5.65;;;-1.90;99.90;;;;;;5068181;28;20068;-71
2021/12/21 00:33:21;;;;;;;13.18;5.97;;;-1.90;99.90;;;;;;5020951;28;20056;-71
2021/12/21 00:35:46;;;;;;;8.07;5.85;;;-1.80;99.90;;;;;;5034502;28;20050;-71
2021/12/21 00:38:13;;;;;;;8.52;5.93;;;-1.80;99.90;;;;;;5037269;28;20045;-71
2021/12/21 00:40:39;;;;;;;12.35;6.68;;;-1.80;99.90;;;;;;5035676;28;20128;-71
2021/12/21 00:43:05;;;;;;;13.00;7.07;;;-1.80;99.90;;;;;;5036593;28;20496;-70
2021/12/21 00:45:31;;;;;;;12.05;6.13;;;-1.70;99.90;;;;;;5020120;28;20463;-71
2021/12/21 00:47:56;;;;;;;8.80;5.28;;;-1.80;99.90;;;;;;5018104;28;20057;-71
2021/12/21 00:50:23;;;;;;;8.18;4.85;;;-1.70;99.90;;;;;;5037322;28;20041;-71
2021/12/21 00:52:51;;;;;;;8.65;4.45;;;-1.70;99.90;;;;;;5034802;28;20045;-71
2021/12/21 00:55:18;;;;;;;7.78;4.80;;;-1.80;99.90;;;;;;5070717;28;20076;-71
2021/12/21 00:57:43;;;;;;;8.38;5.05;;;-1.90;99.90;;;;;;5034925;28;20049;-71
2021/12/21 01:00:12;;;;;;;7.18;4.03;;;-2.00;99.90;;;;;;5036527;28;20041;-71
2021/12/21 01:02:39;;;;;;;5.75;3.65;;;-2.00;99.90;;;;;;5020121;28;20094;-71
2021/12/21 01:05:10;;;;;;;7.45;4.22;;;-2.10;99.90;;;;;;5068869;28;20544;-71
2021/12/21 01:07:41;;;;;;;8.50;4.47;;;-2.20;99.90;;;;;;5074595;28;20045;-71
2021/12/21 01:13:00;;;;;;;8.30;4.30;;;-2.30;99.90;;;;;;5042028;28;20054;-71
2021/12/21 01:18:15;;;;;;;9.63;4.35;;;-2.30;99.90;;;;;;5071760;28;20129;-71
2021/12/21 01:20:48;;;;;;;7.47;4.28;;;-2.30;99.90;;;;;;5040959;28;20066;-71
2021/12/21 01:26:09;;;;;;;6.40;5.10;;;-2.10;99.90;;;;;;5074158;28;20773;-71
2021/12/21 01:36:37;;;;;;;7.90;3.15;;;-2.00;99.90;;;;;;5039046;28;20401;-72
2021/12/21 01:41:46;;;;;;;7.47;5.25;;;-2.00;99.90;;;;;;5040668;28;20599;-72
2021/12/21 01:52:00;;;;;;;8.13;4.32;;;-2.00;99.90;;;;;;5039746;28;20061;-72
2021/12/21 01:54:26;;;;;;;6.13;3.65;;;-2.20;99.90;;;;;;5039891;28;20041;-71
2021/12/21 01:56:53;;;;;;;4.60;2.22;;;-2.00;99.90;;;;;;5037746;28;20048;-72
2021/12/21 01:59:19;;;;;;;6.85;3.30;;;-2.10;99.90;;;;;;5041296;28;20142;-71
2021/12/21 02:01:45;;;;;;;9.57;4.75;;;-2.00;99.90;;;;;;5038968;28;20045;-71
2021/12/21 02:04:15;;;;;;;9.77;3.95;;;-1.30;99.90;;;;;;5039815;28;20144;-71
2021/12/21 02:06:41;;;;;;;7.22;4.35;;;-1.90;99.90;;;;;;5039473;28;20045;-71
2021/12/21 02:09:07;;;;;;;9.30;5.70;;;-2.00;99.90;;;;;;5039851;28;20124;-71
2021/12/21 02:11:33;;;;;;;8.15;4.80;;;-2.00;99.90;;;;;;5056248;28;20045;-71
2021/12/21 02:14:00;;;;;;;10.35;5.20;;;-2.00;99.90;;;;;;5037534;28;20120;-71
2021/12/21 02:16:34;;;;;;;7.35;3.90;;;-2.00;99.90;;;;;;5055162;28;20115;-71
2021/12/21 02:19:05;;;;;;;6.00;2.90;;;-2.00;99.90;;;;;;5037902;28;20501;-70
2021/12/21 02:21:41;;;;;;;4.65;2.50;;;-2.10;99.90;;;;;;5072652;28;20083;-71
2021/12/21 02:24:13;;;;;;;5.63;3.00;;;-2.10;99.90;;;;;;5039945;28;20049;-71
2021/12/21 02:26:50;;;;;;;7.68;3.78;;;-2.10;99.90;;;;;;5038548;28;20136;-71
2021/12/21 02:29:18;;;;;;;7.05;5.78;;;-2.70;99.90;;;;;;5041028;28;20042;-71
2021/12/21 02:31:47;;;;;;;8.40;4.70;;;-2.30;99.90;;;;;;5036368;28;20051;-70
2021/12/21 02:34:15;;;;;;;8.52;4.72;;;-2.40;99.90;;;;;;5039279;28;20042;-71
2021/12/21 02:36:42;;;;;;;7.20;4.15;;;-2.40;99.90;;;;;;5055054;28;20059;-71
2021/12/21 02:39:08;;;;;;;5.20;3.03;;;-2.40;99.90;;;;;;5054433;28;20041;-71
2021/12/21 02:41:36;;;;;;;7.25;3.17;;;-2.50;99.90;;;;;;5040935;28;20045;-71
2021/12/21 02:44:02;;;;;;;6.13;3.17;;;-2.50;99.90;;;;;;5038248;28;20480;-70
2021/12/21 02:46:28;;;;;;;9.50;4.22;;;-2.50;99.90;;;;;;5039259;28;20057;-71
2021/12/21 02:48:54;;;;;;;5.03;3.20;;;-2.50;99.90;;;;;;5038096;28;20504;-70
2021/12/21 02:51:19;;;;;;;6.78;4.00;;;-2.10;99.90;;;;;;5040444;28;20057;-71
2021/12/21 02:53:46;;;;;;;6.15;3.40;;;-2.60;99.90;;;;;;5054659;28;20034;-71
2021/12/21 02:56:13;;;;;;;6.60;3.50;;;-2.50;99.90;;;;;;5037482;28;20095;-71
2021/12/21 02:58:39;;;;;;;6.40;3.83;;;-2.60;99.90;;;;;;5038607;28;20052;-70
2021/12/21 03:01:08;;;;;;;7.00;3.63;;;-2.50;99.90;;;;;;5036581;28;20049;-71
2021/12/21 03:03:34;;;;;;;7.05;3.58;;;-2.60;99.90;;;;;;5040611;28;20048;-71
2021/12/21 03:06:03;;;;;;;6.57;2.80;;;-2.60;99.90;;;;;;5035827;28;20041;-71
2021/12/21 03:08:41;;;;;;;5.70;3.20;;;-2.50;99.90;;;;;;5039835;28;20107;-70
2021/12/21 03:11:18;;;;;;;5.82;2.92;;;-2.50;99.90;;;;;;5038088;28;20501;-71
2021/12/21 03:14:03;;;;;;;6.38;3.30;;;-2.50;99.90;;;;;;5036356;28;20064;-71
2021/12/21 03:16:33;;;;;;;9.00;3.30;;;-2.50;99.90;;;;;;5039780;28;20041;-70
2021/12/21 03:18:59;;;;;;;5.20;3.17;;;-2.60;99.90;;;;;;5037371;28;20077;-70
2021/12/21 03:21:26;;;;;;;5.97;4.05;;;-2.60;99.90;;;;;;5038015;28;20060;-71
2021/12/21 03:23:52;;;;;;;7.53;4.20;;;-2.60;99.90;;;;;;5039170;28;20037;-70
2021/12/21 03:26:18;;;;;;;7.55;4.38;;;-2.60;99.90;;;;;;5037983;28;20056;-71
2021/12/21 03:28:43;;;;;;;7.00;5.28;;;-2.60;99.90;;;;;;5039113;28;20033;-70
2021/12/21 03:31:10;;;;;;;7.20;4.78;;;-2.60;99.90;;;;;;5036619;28;20586;-71
2021/12/21 03:33:36;;;;;;;6.25;4.93;;;-2.90;99.90;;;;;;5039934;28;20084;-70
2021/12/21 03:36:04;;;;;;;8.45;5.43;;;-2.50;99.90;;;;;;5035594;28;20135;-71
2021/12/21 03:38:31;;;;;;;8.60;5.45;;;-2.50;99.90;;;;;;5071708;28;20515;-70
2021/12/21 03:41:03;;;;;;;12.88;5.82;;;-2.40;99.90;;;;;;5038293;28;20037;-70
2021/12/21 03:43:31;;;;;;;14.73;6.47;;;-2.40;99.90;;;;;;5036062;28;20730;-70
2021/12/21 03:46:07;;;;;;;6.55;5.32;;;-2.40;99.90;;;;;;5037007;28;20076;-70
2021/12/21 03:48:33;;;;;;;7.93;4.90;;;-2.00;99.90;;;;;;5035188;28;20056;-70
2021/12/21 03:50:58;;;;;;;9.90;5.25;;;-2.60;99.90;;;;;;5071364;28;20105;-70
2021/12/21 03:53:24;;;;;;;8.52;5.00;;;-2.60;99.90;;;;;;5069530;28;20069;-70
2021/12/21 03:56:01;;;;;;;5.93;3.90;;;-2.70;99.90;;;;;;5037217;28;20087;-70
2021/12/21 03:58:27;;;;;;;9.38;4.13;;;-2.70;99.90;;;;;;5037825;28;20056;-70
2021/12/21 04:00:52;;;;;;;7.45;4.60;;;-2.70;99.90;;;;;;5035271;28;20045;-70
2021/12/21 04:03:18;;;;;;;7.80;4.07;;;-2.80;99.90;;;;;;5071107;28;20073;-70
2021/12/21 04:05:44;;;;;;;7.88;3.75;;;-2.80;99.90;;;;;;5018551;28;20092;-70
2021/12/21 04:08:09;;;;;;;7.47;3.30;;;-2.80;99.90;;;;;;5021636;28;20049;-70
2021/12/21 04:10:35;;;;;;;5.90;3.25;;;-2.80;99.90;;;;;;5035371;28;20050;-70
2021/12/21 04:13:01;;;;;;;8.68;3.40;;;-2.80;99.90;;;;;;5038513;28;20053;-70
2021/12/21 04:15:29;;;;;;;4.68;2.70;;;-2.90;99.90;;;;;;5070721;28;20049;-70
2021/12/21 04:17:55;;;;;;;9.88;4.45;;;-3.10;99.90;;;;;;5036003;28;20044;-71
2021/12/21 04:20:21;;;;;;;7.20;3.90;;;-3.00;99.90;;;;;;5038929;28;20053;-70
2021/12/21 04:22:49;;;;;;;6.05;4.07;;;-2.90;99.90;;;;;;5051160;28;20053;-70
2021/12/21 04:25:15;;;;;;;11.43;3.72;;;-2.40;99.90;;;;;;5038465;28;20405;-70
2021/12/21 04:27:41;;;;;;;5.72;3.20;;;-1.30;99.90;;;;;;5035231;28;20386;-70
2021/12/21 04:30:07;;;;;;;7.95;3.85;;;-3.20;99.90;;;;;;5036350;28;20045;-70
2021/12/21 04:32:33;;;;;;;6.45;3.80;;;-3.20;99.90;;;;;;5034647;28;20053;-70
2021/12/21 04:34:58;;;;;;;5.55;4.30;;;-3.20;99.90;;;;;;5035219;28;20048;-70
2021/12/21 04:37:25;;;;;;;6.18;3.70;;;-3.10;99.90;;;;;;5038699;28;20109;-70
2021/12/21 04:40:03;;;;;;;8.02;4.63;;;-3.10;99.90;;;;;;5034161;28;20523;-70
2021/12/21 04:42:29;;;;;;;6.75;4.07;;;-3.10;99.90;;;;;;5039198;28;20405;-70
2021/12/21 04:44:55;;;;;;;7.82;4.28;;;-3.10;99.90;;;;;;5035413;28;20048;-70
2021/12/21 04:47:21;;;;;;;7.65;5.07;;;-3.10;99.90;;;;;;5036890;28;20045;-70
2021/12/21 04:49:47;;;;;;;9.48;5.63;;;-3.20;99.90;;;;;;5038286;28;20041;-70
2021/12/21 04:52:13;;;;;;;8.43;5.70;;;-1.50;99.90;;;;;;5068360;28;20046;-70
2021/12/21 04:54:39;;;;;;;7.18;5.25;;;-3.20;99.90;;;;;;5037168;28;20077;-70
2021/12/21 04:57:06;;;;;;;9.40;5.20;;;-3.20;99.90;;;;;;5034655;28;20056;-69
2021/12/21 04:59:31;;;;;;;10.55;5.78;;;-3.20;99.90;;;;;;5020877;28;20046;-70
2021/12/21 05:01:57;;;;;;;8.95;4.97;;;-3.10;99.90;;;;;;5018670;28;20037;-69
2021/12/21 05:04:23;;;;;;;8.43;5.22;;;-2.10;99.90;;;;;;5035985;28;20069;-70
2021/12/21 05:06:49;;;;;;;6.97;4.13;;;-3.10;99.90;;;;;;5053507;28;20481;-69
2021/12/21 05:09:24;;;;;;;7.32;4.80;;;-3.10;99.90;;;;;;5018495;28;20045;-70
2021/12/21 05:11:50;;;;;;;5.88;4.50;;;-3.10;99.90;;;;;;5037043;28;20053;-70
2021/12/21 05:14:16;;;;;;;5.78;4.20;;;-3.10;99.90;;;;;;5034384;28;20045;-70
2021/12/21 05:16:41;;;;;;;8.95;4.97;;;-3.10;99.90;;;;;;5036581;28;20084;-71
2021/12/21 05:19:07;;;;;;;6.47;4.82;;;-3.10;99.90;;;;;;5035184;28;20052;-70
2021/12/21 05:21:33;;;;;;;8.15;5.50;;;-3.20;99.90;;;;;;5037727;28;20050;-71
2021/12/21 05:23:59;;;;;;;9.48;5.05;;;-3.20;99.90;;;;;;5036771;28;20037;-70
2021/12/21 05:26:25;;;;;;;9.70;4.80;;;-3.20;99.90;;;;;;5034873;28;20125;-71
2021/12/21 05:28:52;;;;;;;8.93;5.78;;;-3.20;99.90;;;;;;5038447;28;20128;-70
2021/12/21 05:31:17;;;;;;;8.10;4.75;;;-3.50;99.90;;;;;;5033806;28;20052;-70
2021/12/21 05:33:45;;;;;;;7.60;4.43;;;-3.30;99.90;;;;;;5037599;28;20041;-70
2021/12/21 05:36:10;;;;;;;8.88;4.85;;;-3.30;99.90;;;;;;5018883;28;20053;-71
2021/12/21 05:38:36;;;;;;;8.02;5.28;;;-4.10;99.90;;;;;;5052987;28;20504;-71
2021/12/21 05:41:06;;;;;;;7.47;4.97;;;-3.50;99.90;;;;;;5036020;28;20087;-70
2021/12/21 05:43:32;;;;;;;9.38;5.07;;;-3.50;99.90;;;;;;5034305;28;20045;-70
2021/12/21 05:45:58;;;;;;;9.30;5.55;;;-3.40;99.90;;;;;;5037753;28;20131;-70
2021/12/21 05:48:25;;;;;;;8.23;5.22;;;-3.30;99.90;;;;;;5033968;28;20049;-70
2021/12/21 05:50:51;;;;;;;9.80;5.60;;;;;;;;;;5037344;28;20057;-70
2021/12/21 05:53:17;;;;;;;9.38;6.03;;;-3.30;99.90;;;;;;5038336;28;20041;-70
2021/12/21 05:55:43;;;;;;;9.05;5.97;;;-3.90;99.90;;;;;;5039684;28;20049;-71
2021/12/21 05:58:08;;;;;;;9.50;5.25;;;-3.30;99.90;;;;;;5041169;28;20037;-70
2021/12/21 06:00:34;;;;;;;13.32;6.93;;;-3.20;99.90;;;;;;5038242;28;20041;-70
2021/12/21 06:03:01;;;;;;;12.15;6.63;;;-3.20;99.90;;;;;;5040310;28;20053;-70
2021/12/21 06:05:27;;;;;;;10.95;7.10;;;-3.30;99.90;;;;;;5037809;28;20508;-70
2021/12/21 06:07:54;;;;;;;13.05;7.05;;;-3.50;99.90;;;;;;5073516;28;20045;-70
2021/12/21 06:10:27;;;;;;;11.65;6.90;;;-3.30;99.90;;;;;;5037687;28;20049;-71
2021/12/21 06:15:28;;;;;;;12.52;6.55;;;-3.40;99.90;;;;;;5039394;28;20057;-70
2021/12/21 06:26:11;;;;;;;16.40;9.27;;;-3.50;99.90;;;;;;5037987;28;20097;-70
2021/12/21 06:28:37;;;;;;;16.35;8.68;;;-3.50;99.90;;;;;;5039907;28;20494;-70
2021/12/21 06:31:03;;;;;;;16.90;8.50;;;-3.50;99.90;;;;;;5036879;28;20068;-70
2021/12/21 06:33:29;;;;;;;16.48;9.18;;;-3.50;99.90;;;;;;5073203;28;20125;-70
2021/12/21 06:35:55;;;;;;;16.35;9.20;;;-3.50;99.90;;;;;;5020471;28;20126;-70
2021/12/21 06:38:21;;;;;;;16.00;9.55;;;-3.50;99.90;;;;;;5039609;28;20053;-71
2021/12/21 06:40:47;;;;;;;11.65;8.32;;;-3.50;99.90;;;;;;5037961;28;20046;-70
2021/12/21 06:43:15;;;;;;;14.30;8.95;;;-3.50;99.90;;;;;;5037963;28;20167;-70
2021/12/21 06:53:33;;;;;;;14.50;6.95;;;-3.50;99.90;;;;;;5071521;28;20049;-70
2021/12/21 06:55:59;;;;;;;10.30;6.22;;;-3.80;99.90;;;;;;5038686;28;20577;-70
2021/12/21 06:58:25;;;;;;;13.70;6.43;;;-3.50;99.90;;;;;;5038457;28;20087;-70
2021/12/21 07:00:52;;;;;;;13.57;7.00;;;-3.40;99.90;;;;;;5037860;28;20052;-70
2021/12/21 07:03:19;;;;;;;10.13;6.13;;;-3.50;99.90;;;;;;5072188;28;20630;-70
2021/12/21 07:05:46;;;;;;;13.13;6.65;;;-3.60;99.90;;;;;;5036048;28;20504;-71
2021/12/21 07:08:16;;;;;;;10.40;6.43;;;-3.20;99.90;;;;;;5040365;28;20049;-71
2021/12/21 07:10:51;;;;;;;9.73;5.45;;;-3.70;99.90;;;;;;5070680;28;20049;-70
2021/12/21 07:18:45;;;;;;;8.07;5.55;;;-3.60;99.90;;;;;;5069573;28;20045;-70
2021/12/21 07:21:11;;;;;;;9.10;4.35;;;-3.60;99.90;;;;;;5038420;28;20059;-70
2021/12/21 07:23:37;;;;;;;7.38;4.72;;;-3.60;99.90;;;;;;5037504;28;20037;-70
2021/12/21 07:26:03;;;;;;;8.95;4.22;;;-3.60;99.90;;;;;;5037252;28;20045;-70
2021/12/21 07:28:28;;;;;;;8.00;5.35;;;-3.60;99.90;;;;;;5038352;28;20101;-70
2021/12/21 07:30:56;;;;;;;8.45;4.80;;;-3.60;99.90;;;;;;5037067;28;20067;-70
2021/12/21 07:33:22;;;;;;;8.65;4.88;;;-3.50;99.90;;;;;;5037877;28;20041;-69
2021/12/21 07:35:47;;;;;;;8.50;5.15;;;-3.40;99.90;;;;;;5035424;28;20406;-69
2021/12/21 07:38:14;;;;;;;8.25;4.55;;;-3.40;99.90;;;;;;5039817;28;20041;-69
2021/12/21 07:40:39;;;;;;;7.15;4.25;;;-3.40;99.90;;;;;;5037139;28;20085;-69
2021/12/21 07:43:06;;;;;;;8.18;5.00;;;-3.30;99.90;;;;;;5070536;28;20064;-70
2021/12/21 07:45:32;;;;;;;6.50;4.68;;;-3.40;99.90;;;;;;5039555;28;20056;-69
2021/12/21 07:47:58;;;;;;;11.98;5.18;;;-3.20;99.90;;;;;;5036675;28;20057;-69
2021/12/21 07:50:24;;;;;;;11.02;5.47;;;-3.40;99.90;;;;;;5038572;28;20507;-69
2021/12/21 07:52:51;;;;;;;8.63;4.65;;;-3.40;99.90;;;;;;5036807;28;20041;-70
2021/12/21 07:55:17;;;;;;;7.30;4.40;;;-3.10;99.90;;;;;;5039548;28;20049;-70
2021/12/21 07:57:43;;;;;;;6.88;4.72;;;-3.10;99.90;;;;;;5036535;28;20046;-69
2021/12/21 08:00:10;;;;;;;8.20;5.28;;;-3.30;99.90;;;;;;5038205;28;20479;-69
2021/12/21 08:02:39;;;;;;;9.77;5.75;;;-3.30;99.90;;;;;;5037868;28;20045;-69
2021/12/21 08:05:07;;;;;;;8.50;6.50;;;-3.30;99.90;;;;;;5068546;28;20053;-69
2021/12/21 08:07:38;;;;;;;10.52;6.35;;;-3.30;99.90;;;;;;5035704;28;20041;-69
2021/12/21 08:10:18;;;;;;;10.40;6.25;;;-3.20;99.90;;;;;;5031847;28;20046;-69
2021/12/21 08:12:44;;;;;;;11.57;6.05;;;-3.20;99.90;;;;;;5022085;28;20110;-70
2021/12/21 08:15:10;;;;;;;10.55;6.50;;;-3.10;99.90;;;;;;5036213;28;20057;-69
2021/12/21 08:17:36;;;;;;;8.95;5.88;;;-3.20;99.90;;;;;;5051632;28;20566;-69
2021/12/21 08:20:02;;;;;;;9.85;6.22;;;-3.10;99.90;;;;;;5037191;28;20044;-70
2021/12/21 08:22:28;;;;;;;11.20;6.53;;;-3.20;99.90;;;;;;5034506;28;20068;-70
2021/12/21 08:24:54;;;;;;;9.55;6.45;;;-3.20;99.90;;;;;;5037692;28;20053;-69
2021/12/21 08:27:19;;;;;;;12.70;6.43;;;-3.30;99.90;;;;;;5034217;28;20111;-69
2021/12/21 08:29:45;;;;;;;8.57;5.40;;;-3.30;99.90;;;;;;5070218;28;20075;-70
2021/12/21 08:32:11;;;;;;;10.93;6.20;;;-3.30;99.90;;;;;;5037544;28;20045;-69
2021/12/21 08:34:38;;;;;;;14.88;6.47;;;-3.30;99.90;;;;;;5034977;28;20545;-69
2021/12/21 08:37:04;;;;;;;10.48;6.55;;;-3.30;99.90;;;;;;5037256;28;20046;-69
2021/12/21 08:39:38;;;;;;;12.57;7.22;;;-3.20;99.90;;;;;;5033637;28;20052;-69
2021/12/21 08:42:05;;;;;;;11.32;7.28;;;-3.00;99.90;;;;;;5036280;28;20556;-69
2021/12/21 08:44:31;;;;;;;15.95;9.07;;;-3.10;99.90;;;;;;5036346;28;20069;-70
2021/12/21 08:46:57;;;;;;;15.82;9.80;;;-2.90;99.90;;;;;;5035298;28;20040;-69
2021/12/21 08:49:26;;;;;;;16.00;11.93;;;-2.80;99.90;;;;;;5037102;28;20175;-70
2021/12/21 08:51:53;;;;;;;19.23;12.18;;;-2.70;99.90;;;;;;5049540;28;20054;-69
2021/12/21 08:54:19;;;;;;;22.85;14.25;;;-2.70;99.90;;;;;;5036281;28;20134;-69
2021/12/21 08:56:46;;;;;;;18.48;12.65;;;-2.70;99.90;;;;;;5043471;28;20045;-69
2021/12/21 08:59:13;;;;;;;19.20;13.57;;;-2.50;99.90;;;;;;5056907;28;20048;-70
2021/12/21 09:01:38;;;;;;;22.30;13.82;;;-2.60;99.90;;;;;;5037923;28;20087;-69
2021/12/21 09:04:04;;;;;;;20.23;14.25;;;-2.50;99.90;;;;;;5032100;28;20080;-70
2021/12/21 09:06:30;;;;;;;27.33;14.63;;;-2.50;99.90;;;;;;5068168;28;20045;-69
2021/12/21 09:08:56;;;;;;;24.85;15.23;;;-2.40;99.90;;;;;;5036761;28;20108;-70
2021/12/21 09:11:22;;;;;;;26.85;15.80;;;-2.10;99.90;;;;;;5070349;28;20046;-70
2021/12/21 09:13:48;;;;;;;26.80;16.40;;;-2.20;99.90;;;;;;5067903;28;20052;-70
2021/12/21 09:16:13;;;;;;;25.98;17.77;;;-2.00;99.90;;;;;;5036312;28;20046;-71
2021/12/21 09:18:39;;;;;;;31.30;17.63;;;-1.20;99.90;;;;;;5033616;28;20051;-70
2021/12/21 09:21:05;;;;;;;28.83;17.38;;;-1.70;99.90;;;;;;5036782;28;20085;-70
2021/12/21 09:23:31;;;;;;;26.48;16.08;;;-1.60;99.90;;;;;;5019025;28;20125;-70
2021/12/21 09:25:57;;;;;;;26.88;16.08;;;-1.50;99.90;;;;;;5037080;28;20034;-70
2021/12/21 09:28:22;;;;;;;25.13;16.88;;;-1.40;99.90;;;;;;5039538;28;20067;-70
2021/12/21 09:30:48;;;;;;;22.20;16.48;;;-1.30;99.90;;;;;;5054004;28;20100;-70
2021/12/21 09:33:14;;;;;;;28.50;18.60;;;-1.20;99.90;;;;;;5041969;28;20052;-70
2021/12/21 09:35:40;;;;;;;27.73;18.02;;;-1.10;99.90;;;;;;5037510;28;20049;-70
2021/12/21 09:38:06;;;;;;;25.55;17.35;;;-1.10;99.90;;;;;;5073412;28;20052;-70
2021/12/21 09:40:38;;;;;;;23.70;17.95;;;-0.90;99.90;;;;;;5039016;28;20044;-69
2021/12/21 09:43:06;;;;;;;25.23;16.80;;;-0.90;99.90;;;;;;5055366;28;20140;-70
2021/12/21 09:45:32;;;;;;;26.88;17.98;;;-0.80;99.90;;;;;;5040353;28;20045;-70
2021/12/21 09:47:58;;;;;;;27.25;16.23;;;-0.80;99.90;;;;;;5053495;28;20472;-70
2021/12/21 09:50:25;;;;;;;24.73;17.27;;;-0.70;99.90;;;;;;5040029;28;20056;-70
2021/12/21 09:52:53;;;;;;;25.02;17.23;;;-0.60;99.90;;;;;;5020865;28;20049;-70
2021/12/21 09:55:19;;;;;;;26.48;17.52;;;-0.40;99.90;;;;;;5023931;28;20037;-70
2021/12/21 09:57:46;;;;;;;23.92;16.23;;;-0.20;99.90;;;;;;5037879;28;20042;-69
2021/12/21 10:00:24;;;;;;;22.40;16.10;;;0.20;99.90;;;;;;5072039;28;20049;-69
2021/12/21 10:02:51;;;;;;;23.40;16.02;;;0.20;99.90;;;;;;5073418;28;20047;-70
2021/12/21 10:05:20;;;;;;;23.60;16.00;;;0.40;99.90;;;;;;5039051;28;20049;-70
2021/12/21 10:08:12;;;;;;;23.08;15.60;;;0.70;99.90;;;;;;5092668;28;20080;-70
2021/12/21 10:10:47;;;;;;;24.55;13.90;;;1.10;99.90;;;;;;5074703;28;20100;-70
2021/12/21 10:13:22;;;;;;;19.40;14.73;;;1.60;99.90;;;;;;5091129;28;20520;-70
2021/12/21 10:15:50;;;;;;;20.45;14.40;;;2.20;99.90;;;;;;5060922;28;20049;-70
2021/12/21 10:18:23;;;;;;;17.25;13.27;;;2.90;99.90;;;;;;5055875;28;20098;-70
2021/12/21 10:20:50;;;;;;;16.60;13.23;;;3.60;99.90;;;;;;5092718;28;20049;-70
2021/12/21 10:23:25;;;;;;;20.48;13.38;;;4.30;99.90;;;;;;5057898;28;20055;-70
2021/12/21 10:26:01;;;;;;;15.65;12.40;;;4.80;99.90;;;;;;5092375;28;20413;-70
2021/12/21 10:28:50;;;;;;;;;;;5.30;99.90;;;;;;5067349;28;20146;-70
2021/12/21 10:31:26;;;;;;;16.77;12.02;;;5.70;99.90;;;;;;5035966;28;19960;-70
2021/12/21 10:33:53;;;;;;;14.52;11.77;;;6.10;99.90;;;;;;5041203;28;20136;-70
2021/12/21 10:36:19;;;;;;;14.80;11.32;;;6.40;99.90;;;;;;5071409;28;20045;-69
2021/12/21 10:38:51;;;;;;;16.25;11.43;;;6.60;99.90;;;;;;5038256;28;20370;-69
2021/12/21 10:41:36;;;;;;;15.05;10.93;;;6.90;99.90;;;;;;5039575;28;20049;-69
2021/12/21 10:44:11;;;;;;;14.30;10.52;;;7.40;99.90;;;;;;5036397;28;20064;-69
2021/12/21 10:46:39;;;;;;;13.75;10.13;;;7.70;99.90;;;;;;5038606;28;20045;-69
2021/12/21 10:49:16;;;;;;;13.50;10.13;;;7.80;99.90;;;;;;5038858;28;20053;-69
2021/12/21 10:51:52;;;;;;;14.30;10.70;;;8.00;99.90;;;;;;5071111;28;20053;-69
2021/12/21 10:54:43;;;;;;;14.68;10.38;;;8.00;99.90;;;;;;5039714;28;20053;-69
2021/12/21 10:57:22;;;;;;;12.70;9.65;;;7.90;99.90;;;;;;5029897;28;20045;-68
2021/12/21 10:59:53;;;;;;;14.52;9.70;;;7.60;99.90;;;;;;5040017;28;20045;-68
2021/12/21 11:02:30;;;;;;;16.10;10.40;;;7.00;99.90;;;;;;5070484;28;20101;-68
2021/12/21 11:05:05;;;;;;;15.32;10.50;;;6.50;99.90;;;;;;5037116;28;20111;-68
2021/12/21 11:07:39;;;;;;;14.60;10.63;;;6.20;99.90;;;;;;5039538;28;20123;-68
2021/12/21 11:10:27;;;;;;;15.93;10.38;;;5.80;99.90;;;;;;5069254;28;20359;-68
2021/12/21 11:12:58;;;;;;;15.75;9.77;;;5.20;99.90;;;;;;5039042;28;20055;-68
2021/12/21 11:15:35;;;;;;;17.15;10.98;;;4.50;99.90;;;;;;5054792;28;20045;-68
2021/12/21 11:18:07;;;;;;;13.80;10.73;;;4.00;99.90;;;;;;5035773;28;20505;-68
2021/12/21 11:20:35;;;;;;;16.45;11.30;;;3.80;99.90;;;;;;5071978;28;20045;-68
2021/12/21 11:23:03;;;;;;;15.85;11.48;;;3.60;99.90;;;;;;5035503;28;20191;-68
2021/12/21 11:25:29;;;;;;;16.15;11.25;;;3.40;99.90;;;;;;5039027;28;20045;-68
2021/12/21 11:27:55;;;;;;;17.85;11.40;;;3.40;99.90;;;;;;5037056;28;20045;-68
2021/12/21 11:30:24;;;;;;;14.85;10.57;;;3.30;99.90;;;;;;5036511;28;20046;-68
2021/12/21 11:32:52;;;;;;;17.00;10.90;;;3.40;99.90;;;;;;5071111;28;20300;-68
2021/12/21 11:37:50;;;;;;;18.42;12.05;;;3.40;99.90;;;;;;5037999;28;20056;-68
2021/12/21 11:40:21;;;;;;;16.35;11.55;;;3.30;99.90;;;;;;5036027;28;20440;-68
2021/12/21 11:42:50;;;;;;;19.02;12.23;;;3.10;99.90;;;;;;5070806;28;20493;-68
2021/12/21 11:45:22;;;;;;;15.68;11.02;;;3.00;99.90;;;;;;5037638;28;20047;-68
2021/12/21 11:48:02;;;;;;;16.88;10.43;;;3.00;99.90;;;;;;5067881;28;20049;-68
2021/12/21 11:50:28;;;;;;;17.50;10.98;;;2.90;99.90;;;;;;5070849;28;20073;-68
2021/12/21 11:53:01;;;;;;;19.05;10.75;;;2.90;99.90;;;;;;5068208;28;20077;-68
2021/12/21 11:55:27;;;;;;;16.70;11.57;;;2.80;99.90;;;;;;5021070;28;20128;-68
2021/12/21 11:57:59;;;;;;;16.73;11.32;;;2.80;99.90;;;;;;5037634;28;20049;-68
2021/12/21 12:00:35;;;;;;;17.30;11.45;;;2.90;99.90;;;;;;5034807;28;20096;-68
2021/12/21 12:03:12;;;;;;;16.15;12.02;;;2.70;99.90;;;;;;5070864;28;20120;-68
2021/12/21 12:05:49;;;;;;;16.30;11.68;;;2.90;99.90;;;;;;5036429;28;20055;-68
2021/12/21 12:08:15;;;;;;;18.00;11.20;;;3.50;99.90;;;;;;5038795;28;20080;-69
2021/12/21 12:10:54;;;;;;;18.38;11.82;;;2.70;99.90;;;;;;5070104;28;20054;-68
2021/12/21 12:13:40;;;;;;;17.90;10.77;;;2.70;99.90;;;;;;5035821;28;20069;-68
2021/12/21 12:16:14;;;;;;;19.38;11.65;;;2.70;99.90;;;;;;5038056;28;20037;-68
2021/12/21 12:18:43;;;;;;;27.58;12.30;;;2.70;99.90;;;;;;5068168;28;20049;-69
2021/12/21 12:21:20;;;;;;;17.52;10.00;;;2.80;99.90;;;;;;5069791;28;20061;-69
2021/12/21 12:24:00;;;;;;;18.83;11.60;;;2.90;99.90;;;;;;5036899;28;20107;-69
2021/12/21 12:26:38;;;;;;;21.35;10.73;;;3.10;99.90;;;;;;5035899;28;20079;-69
2021/12/21 12:29:14;;;;;;;21.67;10.85;;;3.20;99.90;;;;;;5070325;28;20053;-69
2021/12/21 12:31:42;;;;;;;18.23;11.15;;;3.30;99.90;;;;;;5067263;28;20134;-69
2021/12/21 12:34:08;;;;;;;21.63;10.57;;;3.70;99.90;;;;;;5020226;28;20068;-70
2021/12/21 12:36:39;;;;;;;18.17;10.25;;;3.80;99.90;;;;;;5038494;28;20041;-69
2021/12/21 12:39:07;;;;;;;17.17;9.63;;;3.80;99.90;;;;;;5055818;28;20040;-69
2021/12/21 12:41:47;;;;;;;20.15;10.07;;;3.80;99.90;;;;;;5048877;28;20045;-69
2021/12/21 12:44:41;;;;;;;17.08;8.65;;;3.70;99.90;;;;;;5051781;28;20048;-69
2021/12/21 12:47:10;;;;;;;12.18;7.80;;;4.30;99.90;;;;;;5037806;28;20088;-70
2021/12/21 12:49:47;;;;;;;14.57;7.97;;;4.60;99.90;;;;;;5037828;28;20041;-69
2021/12/21 12:52:20;;;;;;;15.48;7.70;;;4.80;99.90;;;;;;5034798;28;20050;-70
2021/12/21 12:54:52;;;;;;;12.88;7.32;;;5.00;99.90;;;;;;5070798;28;20104;-70
2021/12/21 12:57:28;;;;;;;15.10;6.85;;;5.10;99.90;;;;;;5063744;28;20053;-69
2021/12/21 12:59:57;;;;;;;9.77;6.05;;;5.20;99.90;;;;;;5032851;28;20041;-69
2021/12/21 13:02:25;;;;;;;11.45;6.03;;;5.30;99.90;;;;;;5054999;28;20080;-69
2021/12/21 13:04:51;;;;;;;13.02;6.93;;;5.20;99.90;;;;;;5052956;28;20045;-70
2021/12/21 13:07:27;;;;;;;11.48;6.10;;;5.10;99.90;;;;;;5037336;28;20048;-69
2021/12/21 13:10:08;;;;;;;13.35;7.13;;;5.20;99.90;;;;;;5036392;28;20049;-70
2021/12/21 13:12:35;;;;;;;10.77;6.55;;;5.50;99.90;;;;;;5054178;28;20049;-70
2021/12/21 13:15:01;;;;;;;16.13;7.47;;;5.60;99.90;;;;;;5038148;28;20083;-70
2021/12/21 13:17:28;;;;;;;9.15;6.22;;;6.10;99.90;;;;;;5071424;28;20140;-70
2021/12/21 13:19:54;;;;;;;13.95;7.40;;;7.10;99.90;;;;;;5072942;28;20093;-69
2021/12/21 13:22:25;;;;;;;11.25;6.57;;;6.90;99.90;;;;;;5038247;28;20063;-70
2021/12/21 13:24:52;;;;;;;14.05;7.32;;;6.60;99.90;;;;;;5040986;28;20061;-70
2021/12/21 13:27:20;;;;;;;11.05;6.60;;;6.20;99.90;;;;;;5055178;28;20519;-70
2021/12/21 13:29:49;;;;;;;10.95;6.85;;;6.20;99.90;;;;;;5021856;28;20042;-70
2021/12/21 13:32:19;;;;;;;15.35;6.43;;;6.40;99.90;;;;;;5034181;28;20099;-70
2021/12/21 13:34:49;;;;;;;12.07;5.63;;;6.30;99.90;;;;;;5037645;28;20136;-70
2021/12/21 13:37:19;;;;;;;14.65;5.47;;;6.00;99.90;;;;;;5039647;28;20456;-70
2021/12/21 13:39:53;;;;;;;8.88;5.30;;;5.70;99.90;;;;;;5050713;28;20432;-70
2021/12/21 13:42:22;;;;;;;10.13;5.03;;;5.60;99.90;;;;;;5040822;28;20658;-70
2021/12/21 13:44:52;;;;;;;10.10;5.18;;;5.50;99.90;;;;;;5040218;28;20042;-70
2021/12/21 13:47:30;;;;;;;9.32;4.85;;;5.50;99.90;;;;;;5039133;28;20054;-70
2021/12/21 13:50:05;;;;;;;8.80;5.38;;;5.60;99.90;;;;;;5040219;28;20064;-70
2021/12/21 13:52:43;;;;;;;11.60;7.10;;;5.70;99.90;;;;;;5036996;28;20056;-70